createdAt,value
2022-08-20T00:05:03.025Z,101486.78
2022-08-20T00:10:27.764Z,101449.34
2022-08-20T00:15:50.924Z,101497.50
2022-08-20T00:21:18.772Z,101501.88
2022-08-20T00:26:52.584Z,101506.00
2022-08-20T00:32:15.324Z,101509.34
2022-08-20T00:37:37.862Z,101538.81
2022-08-20T00:43:03.326Z,101544.25
2022-08-20T00:48:29.584Z,101502.66
2022-08-20T00:53:51.890Z,101498.66
2022-08-20T00:59:18.614Z,101493.00
2022-08-20T01:04:41.624Z,101524.38
2022-08-20T01:10:20.214Z,101548.16
2022-08-20T01:15:46.546Z,101515.19
2022-08-20T01:21:09.474Z,101476.81
2022-08-20T01:26:42.184Z,101483.34
2022-08-20T01:32:06.294Z,101511.22
2022-08-20T01:37:31.377Z,101542.09
2022-08-20T01:42:59.264Z,101557.50
2022-08-20T01:48:25.264Z,101525.59
2022-08-20T01:53:53.605Z,101554.84
2022-08-20T01:59:15.614Z,101515.09
2022-08-20T02:04:38.024Z,101557.56
2022-08-20T02:10:01.094Z,101555.66
2022-08-20T02:15:34.464Z,101564.91
2022-08-20T02:20:57.254Z,101548.38
2022-08-20T02:26:19.764Z,101552.72
2022-08-20T02:32:24.255Z,101580.88
2022-08-20T02:37:26.435Z,101576.53
2022-08-20T02:42:48.494Z,101582.78
2022-08-20T02:48:21.616Z,101591.16
2022-08-20T02:53:43.484Z,101577.31
2022-08-20T02:59:05.695Z,101584.66
2022-08-20T03:04:27.363Z,101588.97
2022-08-20T03:09:49.324Z,101572.72
2022-08-20T03:15:17.170Z,101596.78
2022-08-20T03:20:43.094Z,101597.84
2022-08-20T03:26:11.677Z,101598.06
2022-08-20T03:31:34.165Z,101596.94
2022-08-20T03:36:55.956Z,101607.50
2022-08-20T03:42:17.705Z,101581.19
2022-08-20T03:47:41.304Z,101613.38
2022-08-20T03:53:03.026Z,101614.44
2022-08-20T03:58:32.797Z,101610.00
2022-08-20T04:03:59.094Z,101614.78
2022-08-20T04:09:20.687Z,101587.63
2022-08-20T04:14:42.856Z,101584.56
2022-08-20T04:20:07.075Z,101603.59
2022-08-20T04:25:30.214Z,101588.41
2022-08-20T04:31:01.885Z,101588.41
2022-08-20T04:36:23.685Z,101615.91
2022-08-20T04:41:45.936Z,101616.53
2022-08-20T04:47:08.555Z,101610.78
2022-08-20T04:52:33.284Z,101627.16
2022-08-20T04:57:56.818Z,101628.00
2022-08-20T05:03:20.929Z,101621.00
2022-08-20T05:08:42.779Z,101600.25
2022-08-20T05:14:07.851Z,101602.69
2022-08-20T05:19:30.425Z,101603.28
2022-08-20T05:24:52.265Z,101612.56
2022-08-20T05:30:14.805Z,101609.66
2022-08-20T05:35:39.322Z,101611.63
2022-08-20T05:41:02.134Z,101564.09
2022-08-20T05:46:24.837Z,101594.97
2022-08-20T05:51:47.866Z,101617.22
2022-08-20T05:57:09.375Z,101598.34
2022-08-20T06:02:49.978Z,101632.66
2022-08-20T06:08:13.355Z,101625.56
2022-08-20T06:13:35.544Z,101629.09
2022-08-20T06:18:58.224Z,101624.06
2022-08-20T06:24:20.875Z,101631.00
2022-08-20T06:29:42.810Z,101625.91
2022-08-20T06:35:08.515Z,101629.16
2022-08-20T06:40:30.524Z,101619.97
2022-08-20T06:45:53.422Z,101579.16
2022-08-20T06:51:15.523Z,101590.94
2022-08-20T06:56:37.357Z,101603.09
2022-08-20T07:01:59.877Z,101603.66
2022-08-20T07:07:27.455Z,101595.75
2022-08-20T07:13:16.868Z,101590.63
2022-08-20T07:18:38.875Z,101593.75
2022-08-20T07:24:00.925Z,101587.38
2022-08-20T07:29:22.803Z,101581.94
2022-08-20T07:34:45.276Z,101561.22
2022-08-20T07:40:26.033Z,101570.06
2022-08-20T07:45:49.914Z,101556.88
2022-08-20T07:51:17.596Z,101574.94
2022-08-20T07:56:39.477Z,101543.03
2022-08-20T08:02:01.676Z,101578.28
2022-08-20T08:07:24.225Z,101569.78
2022-08-20T08:12:50.935Z,101575.59
2022-08-20T08:18:17.400Z,101547.47
2022-08-20T08:23:45.024Z,101570.06
2022-08-20T08:29:09.756Z,101570.06
2022-08-20T08:34:34.227Z,101561.34
2022-08-20T08:39:57.751Z,101563.56
2022-08-20T08:45:20.955Z,101571.25
2022-08-20T08:50:53.122Z,101535.88
2022-08-20T08:56:16.614Z,101569.75
2022-08-20T09:01:54.118Z,101563.78
2022-08-20T09:07:19.105Z,101552.31
2022-08-20T09:12:49.719Z,101551.97
2022-08-20T09:18:14.127Z,101562.31
2022-08-20T09:23:42.755Z,101550.84
2022-08-20T09:29:04.526Z,101528.94
2022-08-20T09:34:29.036Z,101533.88
2022-08-20T09:39:51.494Z,101552.94
2022-08-20T09:45:14.497Z,101485.22
2022-08-20T09:50:46.841Z,101502.78
2022-08-20T09:56:09.790Z,101486.38
2022-08-20T10:01:32.388Z,101477.66
2022-08-20T10:06:54.357Z,101535.03
2022-08-20T10:12:16.537Z,101524.72
2022-08-20T10:17:42.034Z,101522.06
2022-08-20T10:23:04.910Z,101526.31
2022-08-20T10:28:27.234Z,101519.72
2022-08-20T10:33:49.116Z,101499.75
2022-08-20T10:39:10.851Z,101522.09
2022-08-20T10:44:33.177Z,101505.00
2022-08-20T10:50:00.330Z,101501.66
2022-08-20T10:55:22.566Z,101492.00
2022-08-20T11:00:46.257Z,101492.47
2022-08-20T11:06:08.588Z,101476.69
2022-08-20T11:11:31.027Z,101484.94
2022-08-20T11:16:53.116Z,101461.13
2022-08-20T11:22:19.539Z,101452.53
2022-08-20T11:27:45.594Z,101445.06
2022-08-20T11:33:08.251Z,101421.22
2022-08-20T11:38:32.110Z,101451.69
2022-08-20T11:44:17.511Z,101393.75
2022-08-20T11:49:37.802Z,101391.69
2022-08-20T11:55:03.211Z,101433.81
2022-08-20T12:00:31.806Z,101416.63
2022-08-20T12:05:58.294Z,101402.75
2022-08-20T12:11:20.066Z,101402.53
2022-08-20T12:16:41.934Z,101414.19
2022-08-20T12:22:24.809Z,101405.97
2022-08-20T12:27:47.084Z,101407.28
2022-08-20T12:33:09.125Z,101399.28
2022-08-20T12:38:31.091Z,101396.88
2022-08-20T12:43:52.955Z,101389.94
2022-08-20T12:49:14.978Z,101391.72
2022-08-20T12:54:36.853Z,101388.97
2022-08-20T13:00:28.043Z,101383.94
2022-08-20T13:05:57.837Z,101329.66
2022-08-20T13:11:23.316Z,101325.22
2022-08-20T13:16:45.780Z,101330.53
2022-08-20T13:22:10.584Z,101349.84
2022-08-20T13:27:33.286Z,101351.22
2022-08-20T13:32:56.269Z,101366.56
2022-08-20T13:38:18.522Z,101346.41
2022-08-20T13:43:40.966Z,101321.66
2022-08-20T13:49:03.192Z,101332.28
2022-08-20T13:54:30.194Z,101337.09
2022-08-20T13:59:55.839Z,101338.69
2022-08-20T14:05:19.165Z,101336.38
2022-08-20T14:10:42.839Z,101332.16
2022-08-20T14:16:05.155Z,101322.28
2022-08-20T14:21:46.309Z,101298.56
2022-08-20T14:27:09.186Z,101312.41
2022-08-20T14:32:31.149Z,101280.75
2022-08-20T14:37:59.676Z,101315.47
2022-08-20T14:43:22.865Z,101330.19
2022-08-20T14:48:45.266Z,101302.03
2022-08-20T14:54:15.613Z,101302.13
2022-08-20T14:59:38.013Z,101306.59
2022-08-20T15:05:04.637Z,101302.19
2022-08-20T15:10:32.966Z,101335.84
2022-08-20T15:15:55.537Z,101339.59
2022-08-20T15:21:21.475Z,101324.81
2022-08-20T15:26:43.676Z,101325.50
2022-08-20T15:32:06.215Z,101353.16
2022-08-20T15:37:28.645Z,101350.41
2022-08-20T15:42:51.464Z,101333.75
2022-08-20T15:48:17.695Z,101338.00
2022-08-20T15:54:01.026Z,101346.97
2022-08-20T15:59:40.972Z,101342.38
2022-08-20T16:05:27.684Z,101347.09
2022-08-20T16:11:20.503Z,101350.00
2022-08-20T16:17:01.529Z,101347.94
2022-08-20T16:22:25.551Z,101336.84
2022-08-20T16:28:20.552Z,101341.84
2022-08-20T16:33:54.395Z,101336.19
2022-08-20T16:39:27.604Z,101336.81
2022-08-20T16:44:53.600Z,101354.81
2022-08-20T16:50:27.731Z,101352.88
2022-08-20T16:55:50.120Z,101352.66
2022-08-20T17:01:15.269Z,101348.59
2022-08-20T17:06:47.124Z,101356.56
2022-08-20T17:12:15.985Z,101358.91
2022-08-20T17:17:38.393Z,101354.31
2022-08-20T17:23:18.376Z,101319.34
2022-08-20T17:28:50.398Z,101340.88
2022-08-20T17:34:21.494Z,101341.63
2022-08-20T17:40:12.124Z,101340.44
2022-08-20T17:45:47.832Z,101339.59
2022-08-20T17:51:21.446Z,101291.56
2022-08-20T17:56:44.860Z,101298.44
2022-08-20T18:02:08.737Z,101237.66
2022-08-20T18:07:38.446Z,101309.38
2022-08-20T18:13:09.479Z,101336.72
2022-08-20T18:18:55.048Z,101334.41
2022-08-20T18:24:47.564Z,101336.03
2022-08-20T18:30:22.849Z,101307.41
2022-08-20T18:35:46.456Z,101293.50
2022-08-20T18:41:14.254Z,101296.84
2022-08-20T18:46:38.535Z,101299.88
2022-08-20T18:52:23.953Z,101267.16
2022-08-20T18:57:58.923Z,101333.38
2022-08-20T19:03:32.015Z,101296.22
2022-08-20T19:09:31.871Z,101322.66
2022-08-20T19:15:15.027Z,101235.94
2022-08-20T19:20:49.885Z,101237.94
2022-08-20T19:26:25.635Z,101231.28
2022-08-20T19:31:48.983Z,101230.88
2022-08-20T19:37:44.411Z,101283.72
2022-08-20T19:49:52.714Z,101338.53
2022-08-20T19:55:32.257Z,101281.66
2022-08-20T20:01:03.335Z,101342.03
2022-08-20T20:06:27.634Z,101326.66
2022-08-20T20:12:04.165Z,101280.44
2022-08-20T20:17:32.184Z,101266.50
2022-08-20T20:23:01.928Z,101293.25
2022-08-20T20:28:42.734Z,101342.47
2022-08-20T20:34:10.654Z,101324.50
2022-08-20T20:39:45.909Z,101322.41
2022-08-20T20:45:19.904Z,101308.78
2022-08-20T20:50:42.895Z,101274.88
2022-08-20T20:56:05.504Z,101309.75
2022-08-20T21:01:46.134Z,101273.97
2022-08-20T21:19:33.295Z,101242.59
2022-08-20T21:25:05.307Z,101293.88
2022-08-20T21:30:31.334Z,101233.53
2022-08-20T21:35:58.028Z,101245.28
2022-08-20T21:41:29.968Z,101239.88
2022-08-20T21:46:54.464Z,101252.19
2022-08-20T21:58:00.895Z,101317.66
2022-08-20T22:03:41.835Z,101247.59
2022-08-20T22:09:04.296Z,101323.38
2022-08-20T22:14:26.364Z,101292.47
2022-08-20T22:19:51.013Z,101294.44
2022-08-20T22:25:13.286Z,101317.31
2022-08-20T22:30:38.306Z,101268.56
2022-08-20T22:36:04.065Z,101327.16
2022-08-20T22:41:26.465Z,101263.25
2022-08-20T22:46:51.600Z,101329.13
2022-08-20T22:52:17.765Z,101282.50
2022-08-20T22:57:40.184Z,101296.88
2022-08-20T23:03:03.826Z,101331.72
2022-08-20T23:08:25.914Z,101291.09
2022-08-20T23:13:52.234Z,101300.81
2022-08-20T23:19:22.013Z,101306.78
2022-08-20T23:24:44.043Z,101383.50
2022-08-20T23:30:09.563Z,101299.28
2022-08-20T23:35:32.909Z,101290.38
2022-08-20T23:40:55.444Z,101301.19
2022-08-20T23:46:18.951Z,101252.88
2022-08-20T23:51:41.603Z,101348.56
2022-08-20T23:57:08.256Z,101280.47
